createdAt,value
2022-10-01T00:00:52.914Z,0.00
2022-10-01T00:01:53.131Z,0.00
2022-10-01T00:02:53.196Z,0.00
2022-10-01T00:03:53.147Z,0.00
2022-10-01T00:04:53.238Z,0.00
2022-10-01T00:05:53.314Z,0.00
2022-10-01T00:06:53.399Z,0.00
2022-10-01T00:07:53.497Z,0.00
2022-10-01T00:08:53.577Z,0.00
2022-10-01T00:09:53.658Z,0.00
2022-10-01T00:10:53.739Z,0.00
2022-10-01T00:11:53.819Z,0.00
2022-10-01T00:12:53.966Z,0.00
2022-10-01T00:13:53.998Z,0.00
2022-10-01T00:14:54.071Z,0.00
2022-10-01T00:15:54.155Z,0.00
2022-10-01T00:16:54.323Z,0.00
2022-10-01T00:17:54.309Z,0.00
2022-10-01T00:18:54.385Z,0.00
2022-10-01T00:19:54.440Z,0.00
2022-10-01T00:20:54.516Z,0.00
2022-10-01T00:21:54.585Z,0.00
2022-10-01T00:22:54.717Z,0.00
2022-10-01T00:23:54.749Z,0.00
2022-10-01T00:24:54.830Z,0.00
2022-10-01T00:25:54.913Z,0.00
2022-10-01T00:26:54.973Z,0.00
2022-10-01T00:27:55.171Z,0.00
2022-10-01T00:28:55.126Z,0.00
2022-10-01T00:29:55.218Z,0.00
2022-10-01T00:30:55.299Z,0.00
2022-10-01T00:31:55.423Z,0.00
2022-10-01T00:32:55.463Z,0.00
2022-10-01T00:33:55.537Z,0.00
2022-10-01T00:34:55.616Z,0.00
2022-10-01T00:35:55.691Z,0.00
2022-10-01T00:36:55.775Z,0.00
2022-10-01T00:37:55.860Z,0.00
2022-10-01T00:38:55.922Z,0.00
2022-10-01T00:39:56.026Z,0.00
2022-10-01T00:40:56.104Z,0.00
2022-10-01T00:41:56.213Z,0.00
2022-10-01T00:42:56.325Z,0.00
2022-10-01T00:43:56.371Z,0.00
2022-10-01T00:44:56.444Z,0.00
2022-10-01T00:45:56.563Z,0.00
2022-10-01T00:46:56.619Z,0.00
2022-10-01T00:47:56.744Z,0.00
2022-10-01T00:48:56.811Z,0.00
2022-10-01T00:49:59.423Z,0.00
2022-10-01T00:50:56.989Z,0.00
2022-10-01T00:51:57.096Z,0.00
2022-10-01T00:52:57.196Z,0.00
2022-10-01T00:53:57.299Z,0.00
2022-10-01T00:54:57.373Z,0.00
2022-10-01T00:55:57.461Z,0.00
2022-10-01T00:56:57.514Z,0.00
2022-10-01T00:57:57.605Z,0.00
2022-10-01T00:58:57.638Z,0.00
2022-10-01T00:59:57.749Z,0.00
2022-10-01T01:00:57.877Z,0.00
2022-10-01T01:01:58.048Z,0.00
2022-10-01T01:02:58.102Z,0.00
2022-10-01T01:03:58.093Z,0.00
2022-10-01T01:04:58.172Z,0.00
2022-10-01T01:05:58.247Z,0.00
2022-10-01T01:06:58.329Z,0.00
2022-10-01T01:07:58.412Z,0.00
2022-10-01T01:08:58.464Z,0.00
2022-10-01T01:09:58.566Z,0.00
2022-10-01T01:10:58.652Z,0.00
2022-10-01T01:11:58.725Z,0.00
2022-10-01T01:12:58.814Z,0.00
2022-10-01T01:13:58.884Z,0.00
2022-10-01T01:14:58.970Z,0.00
2022-10-01T01:15:59.114Z,0.00
2022-10-01T01:16:59.104Z,0.00
2022-10-01T01:17:59.256Z,0.00
2022-10-01T01:18:59.276Z,0.00
2022-10-01T01:19:59.362Z,0.00
2022-10-01T01:20:59.449Z,0.00
2022-10-01T01:21:59.529Z,0.00
2022-10-01T01:22:59.711Z,0.00
2022-10-01T01:23:59.699Z,0.00
2022-10-01T01:24:59.782Z,0.00
2022-10-01T01:25:59.837Z,0.00
2022-10-01T01:26:59.921Z,0.00
2022-10-01T01:28:00.091Z,0.00
2022-10-01T01:29:00.095Z,0.00
2022-10-01T01:30:00.168Z,0.00
2022-10-01T01:31:00.327Z,0.00
2022-10-01T01:32:00.316Z,0.00
2022-10-01T01:33:00.450Z,0.00
2022-10-01T01:34:00.480Z,0.00
2022-10-01T01:35:00.584Z,0.00
2022-10-01T01:36:00.644Z,0.00
2022-10-01T01:37:00.730Z,0.00
2022-10-01T01:38:00.827Z,0.00
2022-10-01T01:39:00.895Z,0.00
2022-10-01T01:40:00.959Z,0.00
2022-10-01T01:41:01.051Z,0.00
2022-10-01T01:42:01.115Z,0.00
2022-10-01T01:43:01.216Z,0.00
2022-10-01T01:44:01.252Z,0.00
2022-10-01T01:45:01.355Z,0.00
2022-10-01T01:46:01.441Z,0.00
2022-10-01T01:47:01.505Z,0.00
2022-10-01T01:48:01.587Z,0.00
2022-10-01T01:49:01.653Z,0.00
2022-10-01T01:50:01.707Z,0.00
2022-10-01T01:51:01.805Z,0.00
2022-10-01T01:52:01.868Z,0.00
2022-10-01T01:53:01.984Z,0.00
2022-10-01T01:54:02.040Z,0.00
2022-10-01T01:55:02.145Z,0.00
2022-10-01T01:56:02.207Z,0.00
2022-10-01T01:57:02.284Z,0.00
2022-10-01T01:58:02.374Z,0.00
2022-10-01T01:59:02.452Z,0.00
2022-10-01T02:00:02.503Z,0.00
2022-10-01T02:01:02.615Z,0.00
2022-10-01T02:02:02.825Z,0.00
2022-10-01T02:03:02.833Z,0.00
2022-10-01T02:04:02.846Z,0.00
2022-10-01T02:05:02.914Z,0.00
2022-10-01T02:06:02.978Z,0.00
2022-10-01T02:07:03.081Z,0.00
2022-10-01T02:08:03.172Z,0.00
2022-10-01T02:09:03.232Z,0.00
2022-10-01T02:10:03.317Z,0.00
2022-10-01T02:11:03.393Z,0.00
2022-10-01T02:12:03.454Z,0.00
2022-10-01T02:13:03.561Z,0.00
2022-10-01T02:14:03.604Z,0.00
2022-10-01T02:15:03.715Z,0.00
2022-10-01T02:16:03.807Z,0.00
2022-10-01T02:17:03.853Z,0.00
2022-10-01T02:18:03.955Z,0.00
2022-10-01T02:19:04.031Z,0.00
2022-10-01T02:20:04.114Z,0.00
2022-10-01T02:21:04.190Z,0.00
2022-10-01T02:22:04.272Z,0.00
2022-10-01T02:23:04.601Z,0.00
2022-10-01T02:24:04.437Z,0.00
2022-10-01T02:25:04.526Z,0.00
2022-10-01T02:26:04.612Z,0.00
2022-10-01T02:27:04.703Z,0.00
2022-10-01T02:28:04.847Z,0.00
2022-10-01T02:29:04.850Z,0.00
2022-10-01T02:30:04.920Z,0.00
2022-10-01T02:31:05.080Z,0.00
2022-10-01T02:32:05.077Z,0.00
2022-10-01T02:33:05.277Z,0.00
2022-10-01T02:34:07.561Z,0.00
2022-10-01T02:35:05.311Z,0.00
2022-10-01T02:36:05.377Z,0.00
2022-10-01T02:37:05.469Z,0.00
2022-10-01T02:38:05.549Z,0.00
2022-10-01T02:39:05.635Z,0.00
2022-10-01T02:40:05.705Z,0.00
2022-10-01T02:41:05.787Z,0.00
2022-10-01T02:42:05.852Z,0.00
2022-10-01T02:43:05.955Z,0.00
2022-10-01T02:44:06.018Z,0.00
2022-10-01T02:45:06.103Z,0.00
2022-10-01T02:46:06.238Z,0.00
2022-10-01T02:47:06.274Z,0.00
2022-10-01T02:48:06.364Z,0.00
2022-10-01T02:49:06.435Z,0.00
2022-10-01T02:50:06.514Z,0.00
2022-10-01T02:51:06.602Z,0.00
2022-10-01T02:52:06.681Z,0.00
2022-10-01T02:53:06.858Z,0.00
2022-10-01T02:54:06.826Z,0.00
2022-10-01T02:55:06.896Z,0.00
2022-10-01T02:56:06.969Z,0.00
2022-10-01T02:57:07.045Z,0.00
2022-10-01T02:58:07.130Z,0.00
2022-10-01T02:59:07.209Z,0.00
2022-10-01T03:00:07.295Z,0.00
2022-10-01T03:01:07.483Z,0.00
2022-10-01T03:02:07.522Z,0.00
2022-10-01T03:03:07.566Z,0.00
2022-10-01T03:04:07.596Z,0.00
2022-10-01T03:05:07.692Z,0.00
2022-10-01T03:06:07.760Z,0.00
2022-10-01T03:07:07.841Z,0.00
2022-10-01T03:08:07.933Z,0.00
2022-10-01T03:09:08.009Z,0.00
2022-10-01T03:10:08.095Z,0.00
2022-10-01T03:11:08.178Z,0.00
2022-10-01T03:12:08.256Z,0.00
2022-10-01T03:13:08.366Z,0.00
2022-10-01T03:14:08.402Z,0.00
2022-10-01T03:15:08.480Z,0.00
2022-10-01T03:16:08.623Z,0.00
2022-10-01T03:17:08.657Z,0.00
2022-10-01T03:18:08.759Z,0.00
2022-10-01T03:19:08.822Z,0.00
2022-10-01T03:20:08.897Z,0.00
2022-10-01T03:21:09.003Z,0.00
2022-10-01T03:22:09.079Z,0.00
2022-10-01T03:23:09.201Z,0.00
2022-10-01T03:24:09.243Z,0.00
2022-10-01T03:25:09.318Z,0.00
2022-10-01T03:26:09.396Z,0.00
2022-10-01T03:27:09.470Z,0.00
2022-10-01T03:28:09.645Z,0.00
2022-10-01T03:29:09.657Z,0.00
2022-10-01T03:30:09.729Z,0.00
2022-10-01T03:31:09.929Z,0.00
2022-10-01T03:32:09.877Z,0.00
2022-10-01T03:33:11.807Z,0.00
2022-10-01T03:34:10.039Z,0.00
2022-10-01T03:35:10.131Z,0.00
2022-10-01T03:36:10.188Z,0.00
2022-10-01T03:37:10.279Z,0.00
2022-10-01T03:38:10.341Z,0.00
2022-10-01T03:39:10.440Z,0.00
2022-10-01T03:40:10.520Z,0.00
2022-10-01T03:41:10.605Z,0.00
2022-10-01T03:42:10.665Z,0.00
2022-10-01T03:43:10.758Z,0.00
2022-10-01T03:44:10.929Z,0.00
2022-10-01T03:45:10.878Z,0.00
2022-10-01T03:46:10.984Z,0.00
2022-10-01T03:47:11.020Z,0.00
2022-10-01T03:48:11.070Z,0.00
2022-10-01T03:49:11.199Z,0.00
2022-10-01T03:50:11.225Z,0.00
2022-10-01T03:51:11.330Z,0.00
2022-10-01T03:52:11.391Z,0.00
2022-10-01T03:53:11.507Z,0.00
2022-10-01T03:54:11.595Z,0.00
2022-10-01T03:55:11.649Z,0.00
2022-10-01T03:56:11.718Z,0.00
2022-10-01T03:57:11.803Z,0.00
2022-10-01T03:58:11.870Z,0.00
2022-10-01T03:59:11.980Z,0.00
2022-10-01T04:00:12.049Z,0.00
2022-10-01T04:01:12.250Z,0.00
2022-10-01T04:02:12.355Z,0.00
2022-10-01T04:03:12.387Z,0.00
2022-10-01T04:04:12.379Z,0.00
2022-10-01T04:05:12.465Z,0.00
2022-10-01T04:06:12.521Z,0.00
2022-10-01T04:07:12.611Z,0.00
2022-10-01T04:08:12.667Z,0.00
2022-10-01T04:09:12.785Z,0.00
2022-10-01T04:10:12.843Z,0.00
2022-10-01T04:11:12.926Z,0.00
2022-10-01T04:12:12.994Z,0.00
2022-10-01T04:13:13.099Z,0.00
2022-10-01T04:14:13.182Z,0.00
2022-10-01T04:15:13.247Z,0.00
2022-10-01T04:16:13.340Z,0.00
2022-10-01T04:17:13.425Z,0.00
2022-10-01T04:18:13.488Z,0.00
2022-10-01T04:19:13.619Z,0.00
2022-10-01T04:20:13.659Z,0.00
2022-10-01T04:21:13.751Z,0.00
2022-10-01T04:22:13.845Z,0.00
2022-10-01T04:23:13.940Z,0.00
2022-10-01T04:24:14.116Z,0.00
2022-10-01T04:25:14.087Z,0.00
2022-10-01T04:26:14.138Z,0.00
2022-10-01T04:27:14.246Z,0.00
2022-10-01T04:28:14.410Z,0.00
2022-10-01T04:29:14.439Z,0.00
2022-10-01T04:30:14.503Z,0.00
2022-10-01T04:31:14.681Z,0.00
2022-10-01T04:32:14.687Z,0.00
2022-10-01T04:33:14.780Z,0.00
2022-10-01T04:34:14.860Z,0.00
2022-10-01T04:35:14.931Z,0.00
2022-10-01T04:36:14.995Z,0.00
2022-10-01T04:37:15.085Z,0.00
2022-10-01T04:38:15.143Z,0.00
2022-10-01T04:39:15.242Z,0.00
2022-10-01T04:40:15.297Z,0.00
2022-10-01T04:41:15.384Z,0.00
2022-10-01T04:42:15.445Z,0.00
2022-10-01T04:43:15.534Z,0.00
2022-10-01T04:44:15.625Z,0.00
2022-10-01T04:45:15.678Z,0.00
2022-10-01T04:46:15.836Z,0.00
2022-10-01T04:47:15.842Z,0.00
2022-10-01T04:48:15.903Z,0.00
2022-10-01T04:49:16.019Z,0.00
2022-10-01T04:50:16.084Z,0.00
2022-10-01T04:51:16.173Z,0.00
2022-10-01T04:52:16.235Z,0.00
2022-10-01T04:53:16.335Z,0.00
2022-10-01T04:54:16.506Z,0.00
2022-10-01T04:55:16.475Z,0.00
2022-10-01T04:56:16.547Z,0.00
2022-10-01T04:57:16.644Z,0.00
2022-10-01T04:58:16.710Z,0.00
2022-10-01T04:59:16.826Z,0.00
2022-10-01T05:00:16.887Z,0.00
2022-10-01T05:01:17.063Z,0.00
2022-10-01T05:02:17.065Z,0.00
2022-10-01T05:03:17.138Z,0.00
2022-10-01T05:04:17.246Z,0.00
2022-10-01T05:05:17.309Z,0.00
2022-10-01T05:06:17.358Z,0.00
2022-10-01T05:07:17.455Z,0.00
2022-10-01T05:08:17.505Z,0.00
2022-10-01T05:09:17.633Z,0.00
2022-10-01T05:10:17.701Z,0.00
2022-10-01T05:11:17.802Z,0.00
2022-10-01T05:12:22.358Z,0.00
2022-10-01T05:13:17.942Z,0.00
2022-10-01T05:14:18.031Z,0.00
2022-10-01T05:15:18.093Z,0.00
2022-10-01T05:16:18.189Z,0.00
2022-10-01T05:17:18.241Z,0.00
2022-10-01T05:18:18.300Z,0.00
2022-10-01T05:19:18.403Z,0.00
2022-10-01T05:20:18.462Z,0.00
2022-10-01T05:21:18.545Z,0.00
2022-10-01T05:22:18.616Z,0.00
2022-10-01T05:23:18.688Z,0.00
2022-10-01T05:24:18.774Z,0.00
2022-10-01T05:25:18.821Z,0.00
2022-10-01T05:26:18.899Z,0.00
2022-10-01T05:27:18.970Z,0.00
2022-10-01T05:28:22.504Z,0.00
2022-10-01T05:29:19.143Z,0.00
2022-10-01T05:30:19.181Z,0.00
2022-10-01T05:31:19.387Z,0.00
2022-10-01T05:32:19.309Z,0.00
2022-10-01T05:33:19.382Z,0.00
2022-10-01T05:34:19.507Z,0.00
2022-10-01T05:35:19.541Z,0.00
2022-10-01T05:36:19.619Z,0.00
2022-10-01T05:37:19.707Z,0.00
2022-10-01T05:38:19.770Z,0.00
2022-10-01T05:39:19.873Z,0.00
2022-10-01T05:40:19.945Z,0.00
2022-10-01T05:41:20.038Z,5.62
2022-10-01T05:42:20.122Z,5.62
2022-10-01T05:43:20.162Z,5.62
2022-10-01T05:44:20.269Z,5.62
2022-10-01T05:45:20.312Z,5.62
2022-10-01T05:46:20.403Z,5.62
2022-10-01T05:47:20.460Z,5.62
2022-10-01T05:48:20.535Z,5.62
2022-10-01T05:49:20.643Z,5.62
2022-10-01T05:50:20.725Z,5.62
2022-10-01T05:51:20.779Z,5.62
2022-10-01T05:52:20.862Z,5.62
2022-10-01T05:53:20.951Z,5.62
2022-10-01T05:54:21.048Z,5.62
2022-10-01T05:55:21.101Z,5.62
2022-10-01T05:56:21.183Z,5.62
2022-10-01T05:57:21.227Z,5.62
2022-10-01T05:58:21.308Z,5.62
2022-10-01T05:59:21.383Z,11.25
2022-10-01T06:00:21.476Z,11.25
2022-10-01T06:01:21.559Z,11.25
2022-10-01T06:02:21.787Z,11.25
2022-10-01T06:03:21.779Z,11.25
2022-10-01T06:04:21.961Z,11.25
2022-10-01T06:05:21.887Z,11.25
2022-10-01T06:06:21.993Z,11.25
2022-10-01T06:07:22.066Z,11.25
2022-10-01T06:08:22.148Z,16.88
2022-10-01T06:09:22.292Z,16.88
2022-10-01T06:10:22.318Z,16.88
2022-10-01T06:11:22.370Z,16.88
2022-10-01T06:12:22.474Z,16.88
2022-10-01T06:13:22.535Z,22.50
2022-10-01T06:14:22.653Z,22.50
2022-10-01T06:15:22.683Z,22.50
2022-10-01T06:16:22.830Z,22.50
2022-10-01T06:17:22.818Z,16.88
2022-10-01T06:18:22.922Z,16.88
2022-10-01T06:19:22.983Z,16.88
2022-10-01T06:20:23.083Z,16.88
2022-10-01T06:21:23.166Z,16.88
2022-10-01T06:22:23.275Z,16.88
2022-10-01T06:23:23.340Z,16.88
2022-10-01T06:24:23.545Z,16.88
2022-10-01T06:25:23.528Z,16.88
2022-10-01T06:26:23.623Z,22.50
2022-10-01T06:27:23.691Z,22.50
2022-10-01T06:28:23.846Z,22.50
2022-10-01T06:29:23.890Z,22.50
2022-10-01T06:30:23.981Z,22.50
2022-10-01T06:31:24.076Z,22.50
2022-10-01T06:32:24.123Z,22.50
2022-10-01T06:33:24.210Z,28.12
2022-10-01T06:34:24.326Z,28.12
2022-10-01T06:35:24.382Z,33.75
2022-10-01T06:36:24.473Z,39.38
2022-10-01T06:37:24.545Z,39.38
2022-10-01T06:38:24.632Z,39.38
2022-10-01T06:39:24.716Z,39.38
2022-10-01T06:40:24.801Z,33.75
2022-10-01T06:41:24.872Z,39.38
2022-10-01T06:42:24.967Z,33.75
2022-10-01T06:43:25.047Z,33.75
2022-10-01T06:44:25.169Z,39.38
2022-10-01T06:45:25.225Z,33.75
2022-10-01T06:46:25.317Z,33.75
2022-10-01T06:47:25.377Z,28.12
2022-10-01T06:48:25.471Z,28.12
2022-10-01T06:49:25.616Z,28.12
2022-10-01T06:50:25.717Z,33.75
2022-10-01T06:51:25.677Z,33.75
2022-10-01T06:52:25.774Z,39.38
2022-10-01T06:53:25.862Z,45.00
2022-10-01T06:54:25.989Z,39.38
2022-10-01T06:55:26.019Z,33.75
2022-10-01T06:56:26.124Z,33.75
2022-10-01T06:57:26.203Z,39.38
2022-10-01T06:58:26.320Z,39.38
2022-10-01T06:59:26.357Z,39.38
2022-10-01T07:00:26.424Z,39.38
2022-10-01T07:01:26.556Z,45.00
2022-10-01T07:02:26.645Z,50.62
2022-10-01T07:03:26.644Z,56.25
2022-10-01T07:04:26.773Z,67.50
2022-10-01T07:05:26.830Z,67.50
2022-10-01T07:06:26.926Z,67.50
2022-10-01T07:07:29.926Z,73.12
2022-10-01T07:08:27.099Z,67.50
2022-10-01T07:09:27.191Z,67.50
2022-10-01T07:10:27.254Z,67.50
2022-10-01T07:11:27.326Z,73.12
2022-10-01T07:12:27.433Z,78.75
2022-10-01T07:13:27.512Z,78.75
2022-10-01T07:14:27.731Z,78.75
2022-10-01T07:15:27.672Z,78.75
2022-10-01T07:16:27.823Z,78.75
2022-10-01T07:17:27.823Z,95.62
2022-10-01T07:18:27.896Z,106.88
2022-10-01T07:19:27.997Z,123.75
2022-10-01T07:20:28.053Z,157.50
2022-10-01T07:21:28.126Z,213.75
2022-10-01T07:22:28.216Z,264.38
2022-10-01T07:23:28.287Z,309.38
2022-10-01T07:24:28.416Z,337.50
2022-10-01T07:25:28.425Z,337.50
2022-10-01T07:26:28.546Z,343.12
2022-10-01T07:27:28.615Z,393.75
2022-10-01T07:28:28.714Z,433.12
2022-10-01T07:29:28.751Z,455.62
2022-10-01T07:30:28.832Z,483.75
2022-10-01T07:31:28.945Z,534.38
2022-10-01T07:32:28.971Z,579.38
2022-10-01T07:33:29.047Z,511.88
2022-10-01T07:34:29.173Z,511.88
2022-10-01T07:35:29.207Z,585.00
2022-10-01T07:36:29.314Z,472.50
2022-10-01T07:37:29.385Z,450.00
2022-10-01T07:38:29.476Z,444.38
2022-10-01T07:39:29.566Z,495.00
2022-10-01T07:40:29.622Z,506.25
2022-10-01T07:41:29.693Z,444.38
2022-10-01T07:42:29.778Z,438.75
2022-10-01T07:43:29.932Z,405.00
2022-10-01T07:44:29.997Z,371.25
2022-10-01T07:45:30.086Z,360.00
2022-10-01T07:46:34.499Z,354.38
2022-10-01T07:47:30.178Z,326.25
2022-10-01T07:48:30.278Z,253.12
2022-10-01T07:49:30.366Z,202.50
2022-10-01T07:50:30.473Z,185.62
2022-10-01T07:51:30.664Z,180.00
2022-10-01T07:52:30.608Z,163.12
2022-10-01T07:53:30.699Z,151.88
2022-10-01T07:54:30.800Z,146.25
2022-10-01T07:55:30.935Z,146.25
2022-10-01T07:56:30.959Z,163.12
2022-10-01T07:57:31.028Z,185.62
2022-10-01T07:58:31.121Z,213.75
2022-10-01T07:59:31.233Z,208.12
2022-10-01T08:00:31.305Z,202.50
2022-10-01T08:01:31.762Z,191.25
2022-10-01T08:02:31.539Z,157.50
2022-10-01T08:03:31.523Z,129.38
2022-10-01T08:04:31.639Z,129.38
2022-10-01T08:05:31.701Z,118.12
2022-10-01T08:06:31.801Z,112.50
2022-10-01T08:07:31.887Z,118.12
2022-10-01T08:08:31.984Z,118.12
2022-10-01T08:09:32.072Z,112.50
2022-10-01T08:10:32.161Z,129.38
2022-10-01T08:11:32.543Z,219.38
2022-10-01T08:12:32.303Z,236.25
2022-10-01T08:13:32.368Z,264.38
2022-10-01T08:14:32.476Z,253.12
2022-10-01T08:15:32.538Z,315.00
2022-10-01T08:16:32.697Z,393.75
2022-10-01T08:17:32.720Z,326.25
2022-10-01T08:18:32.822Z,253.12
2022-10-01T08:19:32.904Z,230.62
2022-10-01T08:20:32.994Z,241.88
2022-10-01T08:21:33.300Z,225.00
2022-10-01T08:22:33.155Z,247.50
2022-10-01T08:23:33.220Z,258.75
2022-10-01T08:24:33.330Z,264.38
2022-10-01T08:25:33.392Z,230.62
2022-10-01T08:26:33.489Z,208.12
2022-10-01T08:27:33.554Z,236.25
2022-10-01T08:28:33.653Z,286.88
2022-10-01T08:29:33.733Z,376.88
2022-10-01T08:30:33.809Z,585.00
2022-10-01T08:31:34.204Z,933.75
2022-10-01T08:32:33.973Z,1451.25
2022-10-01T08:33:34.043Z,618.75
2022-10-01T08:34:34.148Z,433.12
2022-10-01T08:35:34.208Z,337.50
2022-10-01T08:36:34.310Z,253.12
2022-10-01T08:37:34.384Z,236.25
2022-10-01T08:38:34.487Z,270.00
2022-10-01T08:39:34.573Z,253.12
2022-10-01T08:40:34.627Z,292.50
2022-10-01T08:41:35.268Z,337.50
2022-10-01T08:42:34.793Z,348.75
2022-10-01T08:43:34.863Z,286.88
2022-10-01T08:44:34.978Z,253.12
2022-10-01T08:45:35.129Z,225.00
2022-10-01T08:46:35.134Z,213.75
2022-10-01T08:47:35.205Z,202.50
2022-10-01T08:48:35.274Z,247.50
2022-10-01T08:49:35.366Z,320.62
2022-10-01T08:50:35.446Z,371.25
2022-10-01T08:51:35.848Z,348.75
2022-10-01T08:52:35.620Z,236.25
2022-10-01T08:53:35.694Z,146.25
2022-10-01T08:54:35.821Z,118.12
2022-10-01T08:55:35.849Z,118.12
2022-10-01T08:56:35.928Z,106.88
2022-10-01T08:57:35.999Z,90.00
2022-10-01T08:58:36.103Z,84.38
2022-10-01T08:59:36.186Z,78.75
2022-10-01T09:00:36.284Z,78.75
2022-10-01T09:01:36.789Z,95.62
2022-10-01T09:02:36.454Z,95.62
2022-10-01T09:03:36.532Z,101.25
2022-10-01T09:04:36.708Z,106.88
2022-10-01T09:05:36.717Z,112.50
2022-10-01T09:06:36.827Z,118.12
2022-10-01T09:07:36.907Z,140.62
2022-10-01T09:08:36.992Z,151.88
2022-10-01T09:09:37.083Z,140.62
2022-10-01T09:10:37.145Z,140.62
2022-10-01T09:11:37.660Z,168.75
2022-10-01T09:12:37.306Z,196.88
2022-10-01T09:13:37.389Z,191.25
2022-10-01T09:14:37.478Z,185.62
2022-10-01T09:15:37.513Z,208.12
2022-10-01T09:16:37.695Z,219.38
2022-10-01T09:17:37.689Z,230.62
2022-10-01T09:18:37.801Z,247.50
2022-10-01T09:19:40.726Z,264.38
2022-10-01T09:20:37.965Z,270.00
2022-10-01T09:21:38.038Z,275.62
2022-10-01T09:22:38.142Z,286.88
2022-10-01T09:23:38.216Z,292.50
2022-10-01T09:24:38.341Z,298.12
2022-10-01T09:25:38.372Z,309.38
2022-10-01T09:26:38.478Z,315.00
2022-10-01T09:27:38.550Z,320.62
2022-10-01T09:28:38.655Z,331.88
2022-10-01T09:29:38.751Z,320.62
2022-10-01T09:30:38.816Z,303.75
2022-10-01T09:31:39.149Z,303.75
2022-10-01T09:32:38.995Z,298.12
2022-10-01T09:33:39.067Z,281.25
2022-10-01T09:34:39.183Z,275.62
2022-10-01T09:35:39.223Z,253.12
2022-10-01T09:36:39.325Z,213.75
2022-10-01T09:37:39.405Z,191.25
2022-10-01T09:38:39.507Z,202.50
2022-10-01T09:39:39.597Z,253.12
2022-10-01T09:40:39.658Z,264.38
2022-10-01T09:41:39.726Z,264.38
2022-10-01T09:42:39.832Z,393.75
2022-10-01T09:43:39.902Z,489.38
2022-10-01T09:44:40.026Z,523.12
2022-10-01T09:45:40.128Z,556.88
2022-10-01T09:46:40.136Z,641.25
2022-10-01T09:47:40.198Z,534.38
2022-10-01T09:48:40.309Z,421.88
2022-10-01T09:49:41.967Z,416.25
2022-10-01T09:50:40.470Z,556.88
2022-10-01T09:51:41.117Z,759.38
2022-10-01T09:52:40.605Z,641.25
2022-10-01T09:53:40.661Z,2058.75
2022-10-01T09:54:40.736Z,1051.88
2022-10-01T09:55:40.851Z,1974.38
2022-10-01T09:56:40.916Z,1777.50
2022-10-01T09:57:41.006Z,1231.88
2022-10-01T09:58:41.077Z,1411.88
2022-10-01T09:59:41.176Z,945.00
2022-10-01T10:00:41.364Z,821.25
2022-10-01T10:01:41.373Z,725.62
2022-10-01T10:02:46.033Z,1777.50
2022-10-01T10:03:41.587Z,573.75
2022-10-01T10:04:41.557Z,478.12
2022-10-01T10:05:41.652Z,365.62
2022-10-01T10:06:41.756Z,421.88
2022-10-01T10:07:41.830Z,742.50
2022-10-01T10:08:41.903Z,573.75
2022-10-01T10:09:42.005Z,466.88
2022-10-01T10:10:42.103Z,556.88
2022-10-01T10:11:42.149Z,1451.25
2022-10-01T10:12:42.221Z,1327.50
2022-10-01T10:13:42.306Z,826.88
2022-10-01T10:14:42.376Z,703.12
2022-10-01T10:15:42.564Z,1350.00
2022-10-01T10:16:42.597Z,1462.50
2022-10-01T10:17:42.632Z,1344.38
2022-10-01T10:18:42.709Z,1321.88
2022-10-01T10:19:42.796Z,669.38
2022-10-01T10:20:42.883Z,579.38
2022-10-01T10:21:42.948Z,596.25
2022-10-01T10:22:43.020Z,461.25
2022-10-01T10:23:43.105Z,393.75
2022-10-01T10:24:43.176Z,461.25
2022-10-01T10:25:43.504Z,528.75
2022-10-01T10:26:43.445Z,585.00
2022-10-01T10:27:43.449Z,1243.12
2022-10-01T10:28:44.178Z,1366.88
2022-10-01T10:29:43.605Z,1203.75
2022-10-01T10:30:43.695Z,1141.88
2022-10-01T10:31:43.840Z,725.62
2022-10-01T10:32:43.831Z,506.25
2022-10-01T10:33:43.915Z,348.75
2022-10-01T10:34:43.990Z,258.75
2022-10-01T10:35:44.121Z,236.25
2022-10-01T10:36:44.126Z,281.25
2022-10-01T10:37:44.211Z,320.62
2022-10-01T10:38:44.287Z,371.25
2022-10-01T10:39:44.361Z,421.88
2022-10-01T10:40:44.439Z,478.12
2022-10-01T10:41:44.506Z,461.25
2022-10-01T10:42:44.588Z,455.62
2022-10-01T10:43:44.680Z,438.75
2022-10-01T10:44:44.743Z,376.88
2022-10-01T10:45:44.873Z,348.75
2022-10-01T10:46:46.263Z,343.12
2022-10-01T10:47:45.016Z,444.38
2022-10-01T10:48:45.084Z,461.25
2022-10-01T10:49:45.176Z,483.75
2022-10-01T10:50:45.265Z,652.50
2022-10-01T10:51:45.346Z,618.75
2022-10-01T10:52:45.885Z,556.88
2022-10-01T10:53:45.488Z,455.62
2022-10-01T10:54:45.562Z,410.62
2022-10-01T10:55:45.646Z,376.88
2022-10-01T10:56:45.685Z,399.38
2022-10-01T10:57:45.786Z,500.62
2022-10-01T10:58:45.848Z,483.75
2022-10-01T10:59:45.944Z,461.25
2022-10-01T11:00:46.077Z,478.12
2022-10-01T11:01:46.159Z,534.38
2022-10-01T11:02:46.216Z,579.38
2022-10-01T11:03:46.262Z,528.75
2022-10-01T11:04:46.340Z,466.88
2022-10-01T11:05:46.458Z,444.38
2022-10-01T11:06:46.497Z,365.62
2022-10-01T11:07:46.609Z,393.75
2022-10-01T11:08:46.680Z,360.00
2022-10-01T11:09:46.767Z,348.75
2022-10-01T11:10:46.872Z,444.38
2022-10-01T11:11:46.930Z,466.88
2022-10-01T11:12:47.009Z,444.38
2022-10-01T11:13:47.120Z,444.38
2022-10-01T11:14:47.195Z,427.50
2022-10-01T11:15:47.381Z,393.75
2022-10-01T11:16:47.325Z,371.25
2022-10-01T11:17:47.410Z,365.62
2022-10-01T11:18:47.486Z,348.75
2022-10-01T11:19:47.585Z,388.12
2022-10-01T11:20:47.705Z,371.25
2022-10-01T11:21:47.734Z,433.12
2022-10-01T11:22:47.811Z,466.88
2022-10-01T11:23:47.928Z,461.25
2022-10-01T11:24:48.009Z,495.00
2022-10-01T11:25:48.098Z,495.00
2022-10-01T11:26:51.622Z,528.75
2022-10-01T11:27:48.246Z,489.38
2022-10-01T11:28:48.283Z,444.38
2022-10-01T11:29:48.372Z,461.25
2022-10-01T11:30:48.784Z,393.75
2022-10-01T11:31:48.580Z,365.62
2022-10-01T11:32:48.605Z,388.12
2022-10-01T11:33:48.677Z,348.75
2022-10-01T11:34:48.754Z,354.38
2022-10-01T11:35:48.902Z,309.38
2022-10-01T11:36:52.069Z,303.75
2022-10-01T11:37:49.026Z,303.75
2022-10-01T11:38:49.083Z,298.12
2022-10-01T11:39:49.173Z,371.25
2022-10-01T11:40:49.359Z,376.88
2022-10-01T11:41:49.346Z,382.50
2022-10-01T11:42:49.417Z,315.00
2022-10-01T11:43:49.529Z,320.62
2022-10-01T11:44:49.603Z,331.88
2022-10-01T11:45:49.722Z,337.50
2022-10-01T11:46:49.783Z,365.62
2022-10-01T11:47:49.843Z,466.88
2022-10-01T11:48:49.914Z,472.50
2022-10-01T11:49:50.011Z,506.25
2022-10-01T11:50:50.102Z,585.00
2022-10-01T11:51:50.182Z,523.12
2022-10-01T11:52:50.251Z,528.75
2022-10-01T11:53:50.353Z,483.75
2022-10-01T11:54:54.231Z,438.75
2022-10-01T11:55:50.681Z,399.38
2022-10-01T11:56:50.554Z,444.38
2022-10-01T11:57:50.637Z,393.75
2022-10-01T11:58:50.714Z,376.88
2022-10-01T11:59:50.808Z,438.75
2022-10-01T12:00:50.928Z,461.25
2022-10-01T12:01:51.059Z,472.50
2022-10-01T12:02:51.057Z,466.88
2022-10-01T12:03:51.133Z,421.88
2022-10-01T12:04:51.209Z,466.88
2022-10-01T12:05:51.393Z,483.75
2022-10-01T12:06:51.392Z,472.50
2022-10-01T12:07:51.496Z,455.62
2022-10-01T12:08:51.569Z,466.88
2022-10-01T12:09:51.648Z,483.75
2022-10-01T12:10:51.725Z,455.62
2022-10-01T12:11:51.791Z,433.12
2022-10-01T12:12:51.865Z,405.00
2022-10-01T12:13:51.936Z,348.75
2022-10-01T12:14:52.011Z,410.62
2022-10-01T12:15:52.292Z,421.88
2022-10-01T12:16:52.162Z,421.88
2022-10-01T12:17:52.248Z,416.25
2022-10-01T12:18:52.327Z,421.88
2022-10-01T12:19:52.395Z,478.12
2022-10-01T12:20:52.526Z,534.38
2022-10-01T12:21:52.574Z,466.88
2022-10-01T12:22:52.649Z,450.00
2022-10-01T12:23:52.748Z,506.25
2022-10-01T12:24:52.815Z,495.00
2022-10-01T12:25:52.956Z,506.25
2022-10-01T12:26:52.993Z,500.62
2022-10-01T12:27:53.092Z,556.88
2022-10-01T12:28:57.930Z,545.62
2022-10-01T12:29:53.242Z,573.75
2022-10-01T12:30:53.499Z,646.88
2022-10-01T12:31:53.373Z,646.88
2022-10-01T12:32:53.462Z,607.50
2022-10-01T12:33:53.534Z,545.62
2022-10-01T12:34:54.490Z,551.25
2022-10-01T12:35:53.711Z,534.38
2022-10-01T12:36:53.783Z,517.50
2022-10-01T12:37:53.858Z,528.75
2022-10-01T12:38:53.943Z,534.38
2022-10-01T12:39:54.016Z,517.50
2022-10-01T12:40:54.125Z,450.00
2022-10-01T12:41:54.161Z,461.25
2022-10-01T12:42:54.259Z,478.12
2022-10-01T12:43:54.324Z,427.50
2022-10-01T12:44:54.421Z,405.00
2022-10-01T12:45:54.557Z,331.88
2022-10-01T12:46:54.574Z,320.62
2022-10-01T12:47:54.649Z,303.75
2022-10-01T12:48:54.723Z,365.62
2022-10-01T12:49:54.797Z,281.25
2022-10-01T12:50:54.916Z,286.88
2022-10-01T12:51:54.953Z,275.62
2022-10-01T12:52:55.059Z,281.25
2022-10-01T12:53:55.121Z,292.50